createdAt,value
2018-12-20T00:00:18.269Z,95371.4
2018-12-20T00:01:20.768Z,95366.6
2018-12-20T00:02:23.584Z,95366
2018-12-20T00:03:26.197Z,95361.3
2018-12-20T00:04:28.740Z,95365.5
2018-12-20T00:05:31.330Z,95366.1
2018-12-20T00:06:34.108Z,95367.7
2018-12-20T00:07:36.495Z,95360.6
2018-12-20T00:08:39.178Z,95362.6
2018-12-20T00:09:41.958Z,95364.7
2018-12-20T00:10:44.545Z,95364.6
2018-12-20T00:11:47.006Z,95364.4
2018-12-20T00:12:49.361Z,95364.3
2018-12-20T00:13:51.612Z,95364
2018-12-20T00:14:54.367Z,95366.1
2018-12-20T00:15:56.735Z,95364.4
2018-12-20T00:16:59.405Z,95363.4
2018-12-20T00:18:01.441Z,95367.7
2018-12-20T00:19:03.642Z,95360
2018-12-20T00:20:06.273Z,95368.3
2018-12-20T00:21:08.626Z,95369.9
2018-12-20T00:22:11.196Z,95370.2
2018-12-20T00:23:13.863Z,95371.1
2018-12-20T00:24:16.674Z,95374.4
2018-12-20T00:25:19.346Z,95371.6
2018-12-20T00:26:22.084Z,95376.1
2018-12-20T00:27:24.598Z,95371
2018-12-20T00:28:27.495Z,95375.3
2018-12-20T00:29:29.813Z,95370.1
2018-12-20T00:30:32.412Z,95373.8
2018-12-20T00:31:35.101Z,95377.3
2018-12-20T00:32:37.682Z,95379.3
2018-12-20T00:33:40.272Z,95377.7
2018-12-20T00:34:42.732Z,95374
2018-12-20T00:35:45.715Z,95378.6
2018-12-20T00:36:48.206Z,95378.9
2018-12-20T00:37:51.177Z,95376.8
2018-12-20T00:38:53.932Z,95378.3
2018-12-20T00:39:56.831Z,95376.9
2018-12-20T00:40:59.321Z,95375.4
2018-12-20T00:42:01.880Z,95382.3
2018-12-20T00:43:04.502Z,95380
2018-12-20T00:44:06.763Z,95380.8
2018-12-20T00:45:09.716Z,95385.5
2018-12-20T00:46:12.410Z,95384.4
2018-12-20T00:47:14.981Z,95386.2
2018-12-20T00:48:17.732Z,95385.4
2018-12-20T00:49:20.335Z,95393.8
2018-12-20T00:50:23.094Z,95393.2
2018-12-20T00:51:25.709Z,95390.7
2018-12-20T00:52:28.510Z,95391.7
2018-12-20T00:53:32.881Z,95394.9
2018-12-20T00:54:35.585Z,95388.6
2018-12-20T00:55:38.155Z,95393.1
2018-12-20T00:56:41.048Z,95396.8
2018-12-20T00:57:43.822Z,95394.8
2018-12-20T00:58:46.499Z,95397.9
2018-12-20T00:59:49.123Z,95399.2
2018-12-20T01:00:51.490Z,95399.7
2018-12-20T01:01:54.246Z,95397.9
2018-12-20T01:02:57.284Z,95398.5
2018-12-20T01:03:59.659Z,95394
2018-12-20T01:05:02.491Z,95398.5
2018-12-20T01:06:05.192Z,95402.7
2018-12-20T01:07:07.914Z,95404.3
2018-12-20T01:08:10.411Z,95402.8
2018-12-20T01:09:13.190Z,95403
2018-12-20T01:10:15.723Z,95403.1
2018-12-20T01:11:18.427Z,95406
2018-12-20T01:12:21.178Z,95412
2018-12-20T01:13:23.803Z,95410.8
2018-12-20T01:14:26.246Z,95409.2
2018-12-20T01:15:28.962Z,95405.4
2018-12-20T01:16:31.966Z,95406.6
2018-12-20T01:17:34.595Z,95406.2
2018-12-20T01:18:37.309Z,95408.9
2018-12-20T01:19:40.068Z,95413.2
2018-12-20T01:20:42.365Z,95411.4
2018-12-20T01:21:44.991Z,95416.2
2018-12-20T01:22:47.448Z,95405.2
2018-12-20T01:23:49.649Z,95410.5
2018-12-20T01:24:52.450Z,95414.5
2018-12-20T01:25:54.943Z,95415.3
2018-12-20T01:26:57.229Z,95416.9
2018-12-20T01:27:59.681Z,95421.4
2018-12-20T01:29:01.888Z,95423.1
2018-12-20T01:30:04.631Z,95419.8
2018-12-20T01:31:06.822Z,95423.4
2018-12-20T01:32:09.461Z,95424.2
2018-12-20T01:33:11.881Z,95420.5
2018-12-20T01:34:14.517Z,95423.9
2018-12-20T01:35:17.092Z,95421.9
2018-12-20T01:36:19.433Z,95425.6
2018-12-20T01:37:22.072Z,95423.7
2018-12-20T01:38:24.426Z,95426.8
2018-12-20T01:39:27.018Z,95427.4
2018-12-20T01:40:29.857Z,95429.7
2018-12-20T01:41:32.673Z,95426.5
2018-12-20T01:42:35.649Z,95426.8
2018-12-20T01:43:38.141Z,95424.9
2018-12-20T01:44:39.750Z,95421.9
2018-12-20T01:45:41.922Z,95422.8
2018-12-20T01:46:44.933Z,95424.2
2018-12-20T01:47:47.549Z,95424.9
2018-12-20T01:48:50.230Z,95425.2
2018-12-20T01:49:52.593Z,95421.9
2018-12-20T01:50:54.742Z,95421.7
2018-12-20T01:51:57.209Z,95422.4
2018-12-20T01:52:59.747Z,95416.7
2018-12-20T01:54:02.310Z,95415.2
2018-12-20T01:55:05.068Z,95417.1
2018-12-20T01:56:08.026Z,95419
2018-12-20T01:57:10.992Z,95412.6
2018-12-20T01:58:13.497Z,95413.9
2018-12-20T01:59:15.987Z,95416.7
2018-12-20T02:00:18.627Z,95415.8
2018-12-20T02:01:21.052Z,95417.9
2018-12-20T02:02:23.455Z,95421.3
2018-12-20T02:03:25.872Z,95416.7
2018-12-20T02:04:28.508Z,95417.8
2018-12-20T02:05:31.335Z,95418.8
2018-12-20T02:06:33.795Z,95417.4
2018-12-20T02:07:36.581Z,95418.4
2018-12-20T02:08:39.170Z,95414.3
2018-12-20T02:09:41.980Z,95416
2018-12-20T02:10:44.130Z,95422.6
2018-12-20T02:11:46.325Z,95428.3
2018-12-20T02:12:48.646Z,95424.2
2018-12-20T02:13:51.169Z,95427.2
2018-12-20T02:15:59.739Z,95426
2018-12-20T02:17:02.318Z,95427
2018-12-20T02:18:04.406Z,95420.4
2018-12-20T02:19:07.361Z,95423.5
2018-12-20T02:20:09.597Z,95424.8
2018-12-20T02:21:11.873Z,95420.5
2018-12-20T02:22:14.755Z,95423.6
2018-12-20T02:23:17.284Z,95422.7
2018-12-20T02:24:19.731Z,95423.8
2018-12-20T02:25:22.109Z,95424.7
2018-12-20T02:26:24.804Z,95419.7
2018-12-20T02:27:27.473Z,95418.5
2018-12-20T02:28:29.995Z,95420.4
2018-12-20T02:29:32.424Z,95418.7
2018-12-20T02:30:35.014Z,95422.8
2018-12-20T02:31:37.554Z,95418.8
2018-12-20T02:32:40.534Z,95414.5
2018-12-20T02:33:43.149Z,95415.7
2018-12-20T02:34:45.660Z,95420.3
2018-12-20T02:35:48.426Z,95420.6
2018-12-20T02:36:51.550Z,95419.4
2018-12-20T02:37:54.287Z,95422.2
2018-12-20T02:38:56.641Z,95420.9
2018-12-20T02:39:59.243Z,95419.3
2018-12-20T02:41:02.076Z,95417.9
2018-12-20T02:42:04.817Z,95419.9
2018-12-20T02:43:07.961Z,95420.1
2018-12-20T02:44:10.452Z,95416.7
2018-12-20T02:45:13.024Z,95423.2
2018-12-20T02:46:15.420Z,95422
2018-12-20T02:47:18.301Z,95424
2018-12-20T02:48:21.190Z,95421.6
2018-12-20T02:49:24.050Z,95423.4
2018-12-20T02:50:26.880Z,95424.1
2018-12-20T02:51:29.600Z,95430.7
2018-12-20T02:52:32.326Z,95433.8
2018-12-20T02:53:35.311Z,95431.8
2018-12-20T02:54:38.085Z,95429.9
2018-12-20T02:55:40.602Z,95435.3
2018-12-20T02:56:42.979Z,95432.4
2018-12-20T02:57:45.369Z,95434.2
2018-12-20T02:58:47.864Z,95430.2
2018-12-20T02:59:50.292Z,95436.8
2018-12-20T03:00:53.071Z,95433.2
2018-12-20T03:01:55.724Z,95432.5
2018-12-20T03:02:58.705Z,95430.9
2018-12-20T03:04:01.575Z,95433.3
2018-12-20T03:05:04.192Z,95433.7
2018-12-20T03:06:06.823Z,95430.9
2018-12-20T03:07:09.101Z,95432.2
2018-12-20T03:08:11.598Z,95431.8
2018-12-20T03:09:13.806Z,95435.8
2018-12-20T03:10:16.265Z,95436.5
2018-12-20T03:11:19.056Z,95433.3
2018-12-20T03:12:21.260Z,95435.8
2018-12-20T03:13:23.960Z,95437.8
2018-12-20T03:14:26.499Z,95435.3
2018-12-20T03:15:29.323Z,95434.2
2018-12-20T03:16:31.897Z,95431.3
2018-12-20T03:17:34.515Z,95431.1
2018-12-20T03:18:36.687Z,95431.3
2018-12-20T03:19:39.221Z,95435
2018-12-20T03:20:41.749Z,95434.5
2018-12-20T03:21:44.514Z,95436.7
2018-12-20T03:22:46.765Z,95437.3
2018-12-20T03:23:48.910Z,95437.6
2018-12-20T03:24:51.547Z,95432
2018-12-20T03:25:53.823Z,95440.9
2018-12-20T03:26:56.534Z,95434.4
2018-12-20T03:27:59.066Z,95437
2018-12-20T03:29:01.538Z,95439.1
2018-12-20T03:30:04.749Z,95436.7
2018-12-20T03:31:07.777Z,95440.2
2018-12-20T03:32:11.153Z,95436.9
2018-12-20T03:33:13.628Z,95436.4
2018-12-20T03:34:16.548Z,95441.8
2018-12-20T03:35:19.348Z,95442
2018-12-20T03:36:21.925Z,95441.1
2018-12-20T03:37:24.344Z,95440.1
2018-12-20T03:38:27.183Z,95441.8
2018-12-20T03:39:29.650Z,95439.4
2018-12-20T03:40:32.668Z,95437.1
2018-12-20T03:41:35.069Z,95441.8
2018-12-20T03:42:37.682Z,95443.5
2018-12-20T03:43:40.504Z,95444.6
2018-12-20T03:44:43.101Z,95443.1
2018-12-20T03:45:45.794Z,95444.6
2018-12-20T03:46:48.481Z,95439.5
2018-12-20T03:47:51.291Z,95439.8
2018-12-20T03:48:53.983Z,95440.6
2018-12-20T03:49:56.539Z,95439.2
2018-12-20T03:50:59.491Z,95437.7
2018-12-20T03:52:02.641Z,95439.3
2018-12-20T03:53:05.415Z,95440.1
2018-12-20T03:54:08.194Z,95441.2
2018-12-20T03:55:10.912Z,95439.7
2018-12-20T03:56:13.519Z,95442.5
2018-12-20T03:57:16.528Z,95443.2
2018-12-20T03:58:18.763Z,95441.7
2018-12-20T03:59:21.132Z,95443.4
2018-12-20T04:00:23.868Z,95442.9
2018-12-20T04:01:26.710Z,95448
2018-12-20T04:02:29.300Z,95446.4
2018-12-20T04:03:32.102Z,95447.6
2018-12-20T04:04:34.965Z,95445.4
2018-12-20T04:05:37.397Z,95448.5
2018-12-20T04:06:40.006Z,95444.9
2018-12-20T04:07:42.873Z,95447.3
2018-12-20T04:08:45.196Z,95445.1
2018-12-20T04:09:48.173Z,95446.9
2018-12-20T04:10:50.747Z,95441.6
2018-12-20T04:11:53.405Z,95445.1
2018-12-20T04:12:55.834Z,95445.3
2018-12-20T04:13:57.975Z,95444
2018-12-20T04:15:00.709Z,95446
2018-12-20T04:16:03.397Z,95443.4
2018-12-20T04:17:06.519Z,95442.1
2018-12-20T04:18:09.186Z,95447.2
2018-12-20T04:19:12.061Z,95450.4
2018-12-20T04:20:14.204Z,95447.7
2018-12-20T04:21:17.037Z,95441.3
2018-12-20T04:22:19.390Z,95445
2018-12-20T04:23:22.174Z,95446.3
2018-12-20T04:24:24.543Z,95444.7
2018-12-20T04:25:27.060Z,95442.7
2018-12-20T04:26:29.589Z,95445.9
2018-12-20T04:27:32.000Z,95446.3
2018-12-20T04:28:34.691Z,95450.9
2018-12-20T04:29:37.304Z,95450.4
2018-12-20T04:30:39.740Z,95449.5
2018-12-20T04:31:42.422Z,95447.6
2018-12-20T04:32:45.088Z,95445.1
2018-12-20T04:33:47.910Z,95451.8
2018-12-20T04:34:50.623Z,95454.4
2018-12-20T04:35:53.335Z,95452.2
2018-12-20T04:36:55.499Z,95454.7
2018-12-20T04:37:57.935Z,95450.3
2018-12-20T04:39:00.579Z,95460
2018-12-20T04:40:03.389Z,95462.8
2018-12-20T04:41:06.148Z,95463.8
2018-12-20T04:42:08.751Z,95468.3
2018-12-20T04:43:11.142Z,95461
2018-12-20T04:44:14.177Z,95460.7
2018-12-20T04:45:16.930Z,95464.6
2018-12-20T04:46:19.742Z,95465.1
2018-12-20T04:47:23.641Z,95470.6
2018-12-20T04:48:26.305Z,95475.1
2018-12-20T04:49:29.034Z,95472.5
2018-12-20T04:50:31.127Z,95465
2018-12-20T04:51:34.044Z,95464.7
2018-12-20T04:52:36.659Z,95468.4
2018-12-20T04:53:39.036Z,95470.4
2018-12-20T04:54:41.474Z,95465.5
2018-12-20T04:55:43.960Z,95469.8
2018-12-20T04:56:46.700Z,95467.4
2018-12-20T04:57:49.226Z,95467.1
2018-12-20T04:58:51.906Z,95466.9
2018-12-20T04:59:54.609Z,95470.6
2018-12-20T05:00:57.538Z,95470.7
2018-12-20T05:02:00.111Z,95469.5
2018-12-20T05:03:02.767Z,95473.6
2018-12-20T05:04:05.762Z,95468.7
2018-12-20T05:05:08.372Z,95471.9
2018-12-20T05:06:10.958Z,95473.8
2018-12-20T05:07:13.824Z,95469.8
2018-12-20T05:08:16.235Z,95468.3
2018-12-20T05:09:19.208Z,95472.8
2018-12-20T05:10:21.884Z,95470.2
2018-12-20T05:11:24.729Z,95468.6
2018-12-20T05:12:27.404Z,95476.8
2018-12-20T05:13:29.907Z,95477.5
2018-12-20T05:14:32.218Z,95479
2018-12-20T05:15:34.346Z,95475.8
2018-12-20T05:16:37.052Z,95477.3
2018-12-20T05:17:39.870Z,95478
2018-12-20T05:18:43.210Z,95473.1
2018-12-20T05:19:46.286Z,95480.3
2018-12-20T05:20:48.904Z,95475.7
2018-12-20T05:21:51.676Z,95482.2
2018-12-20T05:22:53.879Z,95482.3
2018-12-20T05:23:56.518Z,95481.6
2018-12-20T05:24:58.687Z,95484
2018-12-20T05:26:01.191Z,95484.8
2018-12-20T05:27:03.616Z,95485.5
2018-12-20T05:28:06.011Z,95483.6
2018-12-20T05:29:08.670Z,95487.2
2018-12-20T05:30:11.547Z,95486.4
2018-12-20T05:31:14.019Z,95489.1
2018-12-20T05:32:16.343Z,95488.8
2018-12-20T05:33:18.800Z,95489
2018-12-20T05:34:21.613Z,95491.9
2018-12-20T05:35:24.162Z,95486
2018-12-20T05:36:26.846Z,95490.1
2018-12-20T05:37:29.139Z,95489.9
2018-12-20T05:38:31.723Z,95492.4
2018-12-20T05:39:34.318Z,95490.3
2018-12-20T05:40:36.768Z,95493.7
2018-12-20T05:41:39.162Z,95489.8
2018-12-20T05:42:41.668Z,95488.3
2018-12-20T05:43:44.344Z,95493.4
2018-12-20T05:45:51.903Z,95488.7
2018-12-20T05:46:54.752Z,95493.9
2018-12-20T05:47:57.244Z,95495.4
2018-12-20T05:49:00.088Z,95495.1
2018-12-20T05:50:02.353Z,95496.6
2018-12-20T05:51:04.974Z,95496.4
2018-12-20T05:52:07.478Z,95500.2
2018-12-20T05:53:09.333Z,95500.6
2018-12-20T05:54:11.984Z,95503.7
2018-12-20T05:55:14.752Z,95507.1
2018-12-20T05:56:17.586Z,95508.8
2018-12-20T05:57:19.783Z,95505.7
2018-12-20T05:58:22.085Z,95507.1
2018-12-20T05:59:24.521Z,95507.4
2018-12-20T06:00:26.988Z,95509.8
2018-12-20T06:01:29.589Z,95507.7
2018-12-20T06:02:31.984Z,95509.3
2018-12-20T06:03:34.956Z,95514.4
2018-12-20T06:04:37.441Z,95515.8
2018-12-20T06:05:39.889Z,95510.9
2018-12-20T06:06:42.686Z,95515.4
2018-12-20T06:07:45.198Z,95513.4
2018-12-20T06:08:47.689Z,95519.5
2018-12-20T06:09:49.972Z,95518.1
2018-12-20T06:10:52.142Z,95517.3
2018-12-20T06:11:54.766Z,95515.5
2018-12-20T06:12:57.243Z,95521.1
2018-12-20T06:13:59.653Z,95519.8
2018-12-20T06:15:02.083Z,95523.2
2018-12-20T06:17:10.441Z,95525.1
2018-12-20T06:18:13.141Z,95523.8
2018-12-20T06:19:16.037Z,95524.2
2018-12-20T06:20:18.851Z,95529.1
2018-12-20T06:21:21.594Z,95527.9
2018-12-20T06:22:23.891Z,95534.5
2018-12-20T06:23:25.922Z,95536.2
2018-12-20T06:24:27.812Z,95537.9
2018-12-20T06:25:30.247Z,95533.2
2018-12-20T06:26:32.679Z,95532.5
2018-12-20T06:27:35.111Z,95537.5
2018-12-20T06:28:36.976Z,95537
2018-12-20T06:29:39.136Z,95536.8
2018-12-20T06:30:41.563Z,95541.5
2018-12-20T06:31:43.978Z,95543.8
2018-12-20T06:32:46.400Z,95546
2018-12-20T06:33:48.291Z,95545.7
2018-12-20T06:34:50.209Z,95545.4
2018-12-20T06:35:52.624Z,95545.7
2018-12-20T06:36:54.873Z,95548.5
2018-12-20T06:37:57.300Z,95548.2
2018-12-20T06:38:59.174Z,95544.7
2018-12-20T06:40:01.604Z,95547.6
2018-12-20T06:41:03.751Z,95546.8
2018-12-20T06:42:06.183Z,95548.3
2018-12-20T06:43:08.632Z,95544.6
2018-12-20T06:44:11.062Z,95547
2018-12-20T06:45:13.214Z,95547.5
2018-12-20T06:47:20.613Z,95543.5
2018-12-20T06:48:23.168Z,95550.6
2018-12-20T06:49:25.438Z,95549.4
2018-12-20T06:50:27.610Z,95549.6
2018-12-20T06:51:29.770Z,95550.7
2018-12-20T06:52:32.218Z,95551.3
2018-12-20T06:53:34.380Z,95548.4
2018-12-20T06:54:36.851Z,95552.2
2018-12-20T06:55:39.282Z,95548.1
2018-12-20T06:56:41.523Z,95547.3
2018-12-20T06:57:43.961Z,95548.1
2018-12-20T06:58:46.379Z,95547.7
2018-12-20T06:59:47.971Z,95542.1
2018-12-20T07:00:50.404Z,95551.7
2018-12-20T07:01:52.842Z,95549.5
2018-12-20T07:02:55.269Z,95550.8
2018-12-20T07:03:57.431Z,95547
2018-12-20T07:04:59.591Z,95554.1
2018-12-20T07:06:02.043Z,95550.3
2018-12-20T07:07:04.167Z,95556.2
2018-12-20T07:08:06.032Z,95552.3
2018-12-20T07:09:07.935Z,95549.7
2018-12-20T07:10:09.823Z,95547
2018-12-20T07:11:12.248Z,95548.1
2018-12-20T07:12:14.679Z,95547.5
2018-12-20T07:13:17.089Z,95546.9
2018-12-20T07:14:19.167Z,95549.1
2018-12-20T07:15:21.289Z,95545.7
2018-12-20T07:17:28.705Z,95549.1
2018-12-20T07:18:31.210Z,95551.8
2018-12-20T07:19:33.433Z,95554.7
2018-12-20T07:20:35.863Z,95556.9
2018-12-20T07:21:38.011Z,95552.6
2018-12-20T07:22:40.155Z,95554.3
2018-12-20T07:23:42.313Z,95553.9
2018-12-20T07:24:44.475Z,95554.8
2018-12-20T07:25:46.641Z,95551.8
2018-12-20T07:26:48.836Z,95553.3
2018-12-20T07:27:50.997Z,95553.2
2018-12-20T07:28:53.413Z,95557.1
2018-12-20T07:29:55.879Z,95558.5
2018-12-20T07:30:57.764Z,95561.3
2018-12-20T07:32:00.199Z,95553.8
2018-12-20T07:33:02.623Z,95558.6
2018-12-20T07:34:04.776Z,95556.8
2018-12-20T07:35:06.926Z,95559.3
2018-12-20T07:36:09.199Z,95559.7
2018-12-20T07:37:10.817Z,95557.6
2018-12-20T07:38:12.946Z,95556
2018-12-20T07:39:15.454Z,95557
2018-12-20T07:40:17.619Z,95561.2
2018-12-20T07:41:20.041Z,95560.6
2018-12-20T07:42:22.223Z,95562.6
2018-12-20T07:43:24.673Z,95561.8
2018-12-20T07:44:27.194Z,95564.6
2018-12-20T07:45:29.339Z,95560.6
2018-12-20T07:47:36.770Z,95564.6
2018-12-20T07:48:39.212Z,95567
2018-12-20T07:49:41.361Z,95564.6
2018-12-20T07:50:43.512Z,95565.8
2018-12-20T07:51:45.397Z,95564.5
2018-12-20T07:52:47.833Z,95566.3
2018-12-20T07:53:49.983Z,95570.5
2018-12-20T07:54:52.140Z,95571.8
2018-12-20T07:55:54.292Z,95565.9
2018-12-20T07:56:56.770Z,95572
2018-12-20T07:57:58.926Z,95566.6
2018-12-20T07:59:00.794Z,95567.5
2018-12-20T08:00:02.934Z,95570.5
2018-12-20T08:01:05.364Z,95567.6
2018-12-20T08:02:07.247Z,95571
2018-12-20T08:03:09.694Z,95572.3
2018-12-20T08:04:12.146Z,95571.3
2018-12-20T08:05:14.390Z,95573
2018-12-20T08:06:16.829Z,95572
2018-12-20T08:07:19.261Z,95570.6
2018-12-20T08:08:21.135Z,95572
2018-12-20T08:09:23.293Z,95573.3
2018-12-20T08:10:25.457Z,95574.2
2018-12-20T08:11:27.594Z,95572.6
2018-12-20T08:12:29.749Z,95575.5
2018-12-20T08:13:32.175Z,95574.4
2018-12-20T08:14:34.593Z,95578.3
2018-12-20T08:15:36.747Z,95577.7
2018-12-20T08:17:44.157Z,95578.9
2018-12-20T08:18:46.320Z,95584.3
2018-12-20T08:19:48.745Z,95582.1
2018-12-20T08:20:51.179Z,95580.2
2018-12-20T08:21:53.607Z,95586.8
2018-12-20T08:22:56.032Z,95587.5
2018-12-20T08:23:58.452Z,95586.4
2018-12-20T08:25:00.892Z,95588.6
2018-12-20T08:26:03.042Z,95591
2018-12-20T08:27:04.919Z,95589.3
2018-12-20T08:28:07.083Z,95594.1
2018-12-20T08:29:09.329Z,95588.4
2018-12-20T08:30:11.772Z,95593
2018-12-20T08:31:14.207Z,95589.3
2018-12-20T08:32:16.078Z,95594.1
2018-12-20T08:33:18.211Z,95595.6
2018-12-20T08:34:20.754Z,95601.4
2018-12-20T08:35:23.180Z,95605.8
2018-12-20T08:36:25.074Z,95606.5
2018-12-20T08:37:27.053Z,95607.2
2018-12-20T08:38:29.220Z,95607.9
2018-12-20T08:39:31.653Z,95607.4
2018-12-20T08:40:34.090Z,95609.5
2018-12-20T08:41:36.510Z,95613.1
2018-12-20T08:42:38.671Z,95610.8
2018-12-20T08:43:41.102Z,95611.4
2018-12-20T08:44:42.699Z,95614.3
2018-12-20T08:45:44.844Z,95614.7
2018-12-20T08:47:52.280Z,95611.8
2018-12-20T08:48:54.702Z,95610.8
2018-12-20T08:49:56.844Z,95612.9
2018-12-20T08:50:59.279Z,95611
2018-12-20T08:52:01.720Z,95610.8
2018-12-20T08:53:04.176Z,95613.3
2018-12-20T08:54:06.591Z,95620.6
2018-12-20T08:55:09.070Z,95612.3
2018-12-20T08:56:11.208Z,95620.3
2018-12-20T08:57:13.644Z,95615.8
2018-12-20T08:58:16.075Z,95618.8
2018-12-20T08:59:17.943Z,95620.7
2018-12-20T09:00:20.372Z,95622.4
2018-12-20T09:01:22.245Z,95625.2
2018-12-20T09:02:24.694Z,95626.7
2018-12-20T09:03:26.853Z,95633.8
2018-12-20T09:04:29.278Z,95631.5
2018-12-20T09:05:31.703Z,95629.5
2018-12-20T09:06:33.848Z,95630.4
2018-12-20T09:07:36.034Z,95630.4
2018-12-20T09:08:38.470Z,95632.9
2018-12-20T09:09:40.632Z,95629.7
2018-12-20T09:10:43.064Z,95636.5
2018-12-20T09:11:45.215Z,95632.9
2018-12-20T09:12:47.638Z,95636
2018-12-20T09:13:50.080Z,95630.8
2018-12-20T09:14:52.516Z,95633.7
2018-12-20T09:15:54.942Z,95632.7
2018-12-20T09:18:02.389Z,95633
2018-12-20T09:19:04.810Z,95634
2018-12-20T09:20:07.232Z,95632.5
2018-12-20T09:21:09.656Z,95634.7
2018-12-20T09:22:11.810Z,95636.7
2018-12-20T09:23:14.234Z,95631.1
2018-12-20T09:24:16.391Z,95638.3
2018-12-20T09:25:18.521Z,95642.3
2018-12-20T09:26:20.666Z,95640.7
2018-12-20T09:27:23.092Z,95634.3
2018-12-20T09:28:25.000Z,95635
2018-12-20T09:29:27.416Z,95642
2018-12-20T09:31:34.818Z,95637.6
2018-12-20T09:32:36.959Z,95642
2018-12-20T09:33:39.382Z,95636.5
2018-12-20T09:34:41.812Z,95642
2018-12-20T09:35:44.239Z,95641.9
2018-12-20T09:36:46.662Z,95640
2018-12-20T09:37:48.800Z,95641.9
2018-12-20T09:38:50.945Z,95636
2018-12-20T09:39:53.596Z,95636.8
2018-12-20T09:40:55.891Z,95636.1
2018-12-20T09:41:58.062Z,95638.6
2018-12-20T09:42:59.960Z,95634.3
2018-12-20T09:44:02.116Z,95635.1
2018-12-20T09:45:04.552Z,95635.3
2018-12-20T09:46:06.980Z,95631.3
2018-12-20T09:48:14.402Z,95630
2018-12-20T09:49:16.575Z,95629.2
2018-12-20T09:50:18.712Z,95634.7
2018-12-20T09:51:20.863Z,95627.3
2018-12-20T09:52:23.013Z,95631.1
2018-12-20T09:53:25.164Z,95631.5
2018-12-20T09:54:27.601Z,95627.5
2018-12-20T09:55:29.755Z,95634.3
2018-12-20T09:56:32.175Z,95634
2018-12-20T09:57:34.863Z,95635.4
2018-12-20T09:58:37.343Z,95629.8
2018-12-20T09:59:39.487Z,95636
2018-12-20T10:00:41.716Z,95633.1
2018-12-20T10:01:44.153Z,95636.6
2018-12-20T10:02:46.323Z,95641.2
2018-12-20T10:03:48.204Z,95637.9
2018-12-20T10:04:50.642Z,95632.3
2018-12-20T10:05:52.803Z,95639.1
2018-12-20T10:06:54.953Z,95635.3
2018-12-20T10:07:56.920Z,95635.8
2018-12-20T10:08:58.810Z,95634
2018-12-20T10:10:01.236Z,95631.3
2018-12-20T10:11:03.675Z,95638.3
2018-12-20T10:12:06.106Z,95637.5
2018-12-20T10:13:08.552Z,95646.3
2018-12-20T10:14:10.708Z,95638.9
2018-12-20T10:15:13.131Z,95632
2018-12-20T10:16:15.551Z,95644.4
2018-12-20T10:18:22.963Z,95643.1
2018-12-20T10:19:25.141Z,95638.6
2018-12-20T10:20:27.575Z,95644.6
2018-12-20T10:21:30.017Z,95642
2018-12-20T10:22:32.439Z,95639.3
2018-12-20T10:23:34.869Z,95635
2018-12-20T10:24:37.012Z,95636.6
2018-12-20T10:25:39.443Z,95634.2
2018-12-20T10:26:41.623Z,95633.4
2018-12-20T10:27:44.031Z,95636
2018-12-20T10:28:45.902Z,95638
2018-12-20T10:29:48.329Z,95637.1
2018-12-20T10:30:50.778Z,95642
2018-12-20T10:31:52.914Z,95638.1
2018-12-20T10:32:55.353Z,95640
2018-12-20T10:33:57.782Z,95639.4
2018-12-20T10:35:00.284Z,95636.6
2018-12-20T10:36:02.710Z,95636.5
2018-12-20T10:37:04.841Z,95637.5
2018-12-20T10:38:06.996Z,95634.9
2018-12-20T10:39:08.874Z,95629.6
2018-12-20T10:40:11.298Z,95640.5
2018-12-20T10:41:13.453Z,95643.3
2018-12-20T10:42:15.872Z,95635.1
2018-12-20T10:43:18.053Z,95635.5
2018-12-20T10:44:20.484Z,95640.7
2018-12-20T10:45:22.672Z,95632.9
2018-12-20T10:46:24.825Z,95638.7
2018-12-20T10:48:31.957Z,95641.8
2018-12-20T10:49:34.112Z,95636.7
2018-12-20T10:50:35.422Z,95643.8
2018-12-20T10:51:37.850Z,95642.5
2018-12-20T10:52:39.974Z,95640.9
2018-12-20T10:53:42.393Z,95641.2
2018-12-20T10:54:44.912Z,95645.9
2018-12-20T10:55:47.331Z,95643.3
2018-12-20T10:56:49.774Z,95636.3
2018-12-20T10:57:52.203Z,95629.5
2018-12-20T10:58:54.639Z,95633.7
2018-12-20T10:59:57.071Z,95630.3
2018-12-20T11:00:59.234Z,95638.1
2018-12-20T11:02:01.659Z,95631.9
2018-12-20T11:03:03.819Z,95626.8
2018-12-20T11:04:06.244Z,95631.9
2018-12-20T11:05:08.673Z,95629.9
2018-12-20T11:06:11.107Z,95632.6
2018-12-20T11:07:13.540Z,95627.2
2018-12-20T11:08:15.423Z,95622.5
2018-12-20T11:09:17.582Z,95623.1
2018-12-20T11:10:19.732Z,95625.3
2018-12-20T11:11:21.898Z,95632.9
2018-12-20T11:12:24.157Z,95625.1
2018-12-20T11:13:26.584Z,95630.9
2018-12-20T11:14:28.742Z,95624.3
2018-12-20T11:15:30.991Z,95625
2018-12-20T11:16:33.125Z,95620.7
2018-12-20T11:18:39.697Z,95624.4
2018-12-20T11:19:42.218Z,95621.5
2018-12-20T11:20:44.662Z,95622.2
2018-12-20T11:21:46.695Z,95624.8
2018-12-20T11:22:49.132Z,95627.5
2018-12-20T11:23:51.562Z,95620.4
2018-12-20T11:24:53.986Z,95618
2018-12-20T11:25:56.418Z,95618.4
2018-12-20T11:26:59.139Z,95617.8
2018-12-20T11:28:01.044Z,95617.8
2018-12-20T11:29:03.472Z,95618.9
2018-12-20T11:30:05.627Z,95623.6
2018-12-20T11:31:08.052Z,95612.8
2018-12-20T11:32:10.541Z,95617.3
2018-12-20T11:33:12.971Z,95614
2018-12-20T11:34:15.405Z,95611.6
2018-12-20T11:35:17.539Z,95616.4
2018-12-20T11:36:19.959Z,95619.6
2018-12-20T11:37:22.385Z,95610.4
2018-12-20T11:38:24.808Z,95614.2
2018-12-20T11:39:27.249Z,95612.4
2018-12-20T11:40:29.663Z,95604.2
2018-12-20T11:41:31.831Z,95614.3
2018-12-20T11:42:34.255Z,95617.1
2018-12-20T11:43:36.384Z,95616.6
2018-12-20T11:44:38.548Z,95612.5
2018-12-20T11:45:40.973Z,95609.3
2018-12-20T11:46:43.425Z,95609.8
2018-12-20T11:47:47.674Z,95618.1
2018-12-20T11:48:49.810Z,95613.7
2018-12-20T11:49:51.979Z,95616.6
2018-12-20T11:50:54.414Z,95610.4
2018-12-20T11:51:56.855Z,95610.7
2018-12-20T11:52:59.283Z,95621.1
2018-12-20T11:54:01.743Z,95617.4
2018-12-20T11:55:03.977Z,95614.1
2018-12-20T11:56:06.494Z,95619
2018-12-20T11:57:08.923Z,95617.8
2018-12-20T11:58:10.807Z,95625.2
2018-12-20T11:59:13.231Z,95617.5
2018-12-20T12:00:15.655Z,95618.7
2018-12-20T12:01:18.180Z,95617.1
2018-12-20T12:03:25.054Z,95623.9
2018-12-20T12:04:26.951Z,95618
2018-12-20T12:05:29.392Z,95618.6
2018-12-20T12:06:31.862Z,95606.9
2018-12-20T12:07:34.035Z,95611.3
2018-12-20T12:08:36.474Z,95625.1
2018-12-20T12:09:38.361Z,95621.3
2018-12-20T12:10:40.793Z,95610
2018-12-20T12:11:43.218Z,95615.6
2018-12-20T12:12:45.643Z,95616.9
2018-12-20T12:13:47.511Z,95612.3
2018-12-20T12:14:49.931Z,95615.4
2018-12-20T12:15:51.801Z,95613.7
2018-12-20T12:16:54.245Z,95617.1
2018-12-20T12:17:56.668Z,95610
2018-12-20T12:18:59.098Z,95615
2018-12-20T12:20:01.537Z,95611.9
2018-12-20T12:21:03.701Z,95605.1
2018-12-20T12:22:05.856Z,95606.2
2018-12-20T12:23:08.326Z,95612.9
2018-12-20T12:24:10.471Z,95608.1
2018-12-20T12:25:12.883Z,95604.5
2018-12-20T12:26:15.319Z,95603.3
2018-12-20T12:27:17.751Z,95596.6
2018-12-20T12:28:19.911Z,95603.7
2018-12-20T12:29:22.353Z,95603.4
2018-12-20T12:30:24.511Z,95600.1
2018-12-20T12:31:26.653Z,95601
2018-12-20T12:32:29.110Z,95594.8
2018-12-20T12:33:31.609Z,95597.6
2018-12-20T12:34:33.779Z,95600.6
2018-12-20T12:35:35.657Z,95598.7
2018-12-20T12:36:37.811Z,95597.6
2018-12-20T12:37:40.236Z,95600.8
2018-12-20T12:38:42.693Z,95599
2018-12-20T12:39:45.125Z,95598.3
2018-12-20T12:40:47.283Z,95605.2
2018-12-20T12:41:49.703Z,95599.7
2018-12-20T12:42:52.148Z,95597.6
2018-12-20T12:43:54.305Z,95601.8
2018-12-20T12:44:56.439Z,95591.9
2018-12-20T12:45:58.861Z,95597.5
2018-12-20T12:47:01.301Z,95600.1
2018-12-20T12:48:05.318Z,95601.3
2018-12-20T12:49:06.952Z,95599
2018-12-20T12:50:09.111Z,95590.6
2018-12-20T12:51:11.534Z,95603.5
2018-12-20T12:52:13.969Z,95597.7
2018-12-20T12:53:16.464Z,95609.9
2018-12-20T12:54:18.346Z,95593.5
2018-12-20T12:55:20.502Z,95597.8
2018-12-20T12:56:22.671Z,95592.3